Weather at Moià Les Umbertes

Public forecast

Using degrees Celsius for public forecast. Weather courtesy of forecast.io.

Closest aviation weather report (METAR) to Moià Les Umbertes

Closest report is Sabadell Airport, 16.0 nm (29.6 km) S. Retrieved 2020/09/25 10:30 UTC (19 minutes ago):

LELL 251030Z 27018KT 240V300 CAVOK 21/04 Q1010

Closest aviation forecast (TAF) to Moià Les Umbertes

Closest forecast is Sabadell Airport, 16.0 nm (29.6 km) S. Retrieved 2020/09/25 09:29 UTC (1 hour ago):

TAF LELL 250800Z 2509/2609 23020G35KT 9999 FEW020 TX22/2513Z TN11/2606Z TEMPO 2509/2515 23025G47KT TEMPO 2518/2520 23009KT